sensor_id;sensor_type;location;lat;lon;timestamp;P1;durP1;ratioP1;P2;durP2;ratioP2
15952;SDS011;8075;47.766;8.846;2023-12-14T00:00:08;1.42;;;1.33;;
15952;SDS011;8075;47.766;8.846;2023-12-14T00:02:34;1.73;;;1.42;;
15952;SDS011;8075;47.766;8.846;2023-12-14T00:05:00;1.50;;;1.30;;
15952;SDS011;8075;47.766;8.846;2023-12-14T00:07:26;1.60;;;1.30;;
15952;SDS011;8075;47.766;8.846;2023-12-14T00:09:52;2.00;;;1.30;;
15952;SDS011;8075;47.766;8.846;2023-12-14T00:12:18;1.33;;;1.23;;
15952;SDS011;8075;47.766;8.846;2023-12-14T00:14:44;1.35;;;1.13;;
15952;SDS011;8075;47.766;8.846;2023-12-14T00:17:10;1.55;;;1.13;;
15952;SDS011;8075;47.766;8.846;2023-12-14T00:19:36;1.10;;;1.00;;
15952;SDS011;8075;47.766;8.846;2023-12-14T00:22:02;1.25;;;0.95;;
15952;SDS011;8075;47.766;8.846;2023-12-14T00:24:28;1.73;;;1.00;;
15952;SDS011;8075;47.766;8.846;2023-12-14T00:26:54;1.65;;;1.10;;
15952;SDS011;8075;47.766;8.846;2023-12-14T00:29:20;2.22;;;1.40;;
15952;SDS011;8075;47.766;8.846;2023-12-14T00:31:46;1.30;;;1.20;;
15952;SDS011;8075;47.766;8.846;2023-12-14T00:34:12;1.65;;;1.17;;
15952;SDS011;8075;47.766;8.846;2023-12-14T00:36:38;1.83;;;1.27;;
15952;SDS011;8075;47.766;8.846;2023-12-14T00:39:04;2.17;;;1.13;;
15952;SDS011;8075;47.766;8.846;2023-12-14T00:41:30;1.10;;;1.00;;
15952;SDS011;8075;47.766;8.846;2023-12-14T00:43:56;1.20;;;1.10;;
15952;SDS011;8075;47.766;8.846;2023-12-14T00:46:22;1.52;;;1.33;;
15952;SDS011;8075;47.766;8.846;2023-12-14T00:48:48;1.98;;;1.38;;
15952;SDS011;8075;47.766;8.846;2023-12-14T00:51:14;1.47;;;1.27;;
15952;SDS011;8075;47.766;8.846;2023-12-14T00:53:40;1.50;;;1.25;;
15952;SDS011;8075;47.766;8.846;2023-12-14T00:56:07;1.50;;;1.10;;
15952;SDS011;8075;47.766;8.846;2023-12-14T00:58:33;2.10;;;1.30;;
15952;SDS011;8075;47.766;8.846;2023-12-14T01:00:59;1.30;;;1.00;;
15952;SDS011;8075;47.766;8.846;2023-12-14T01:03:25;1.48;;;1.38;;
15952;SDS011;8075;47.766;8.846;2023-12-14T01:05:51;1.42;;;1.33;;
15952;SDS011;8075;47.766;8.846;2023-12-14T01:08:17;2.03;;;1.30;;
15952;SDS011;8075;47.766;8.846;2023-12-14T01:10:43;1.95;;;1.20;;
15952;SDS011;8075;47.766;8.846;2023-12-14T01:13:09;1.65;;;1.20;;
15952;SDS011;8075;47.766;8.846;2023-12-14T01:15:35;1.50;;;1.10;;
15952;SDS011;8075;47.766;8.846;2023-12-14T01:18:01;1.45;;;1.15;;
15952;SDS011;8075;47.766;8.846;2023-12-14T01:20:27;1.50;;;1.10;;
15952;SDS011;8075;47.766;8.846;2023-12-14T01:22:54;1.10;;;1.00;;
15952;SDS011;8075;47.766;8.846;2023-12-14T01:25:20;1.63;;;1.03;;
15952;SDS011;8075;47.766;8.846;2023-12-14T01:27:46;1.10;;;1.00;;
15952;SDS011;8075;47.766;8.846;2023-12-14T01:30:12;1.40;;;1.25;;
15952;SDS011;8075;47.766;8.846;2023-12-14T01:32:38;1.20;;;1.05;;
15952;SDS011;8075;47.766;8.846;2023-12-14T01:35:04;1.10;;;1.00;;
15952;SDS011;8075;47.766;8.846;2023-12-14T01:37:30;0.90;;;0.90;;
15952;SDS011;8075;47.766;8.846;2023-12-14T01:39:56;1.90;;;1.00;;
15952;SDS011;8075;47.766;8.846;2023-12-14T01:42:22;1.85;;;1.00;;
15952;SDS011;8075;47.766;8.846;2023-12-14T01:44:48;1.80;;;1.07;;
15952;SDS011;8075;47.766;8.846;2023-12-14T01:47:14;1.90;;;1.20;;
15952;SDS011;8075;47.766;8.846;2023-12-14T01:49:40;1.08;;;0.98;;
15952;SDS011;8075;47.766;8.846;2023-12-14T01:52:06;1.20;;;1.10;;
15952;SDS011;8075;47.766;8.846;2023-12-14T01:54:32;1.43;;;1.33;;
15952;SDS011;8075;47.766;8.846;2023-12-14T01:56:59;1.50;;;1.20;;
15952;SDS011;8075;47.766;8.846;2023-12-14T01:59:25;1.23;;;0.93;;
15952;SDS011;8075;47.766;8.846;2023-12-14T02:01:54;1.13;;;1.00;;
15952;SDS011;8075;47.766;8.846;2023-12-14T02:04:21;2.00;;;1.08;;
15952;SDS011;8075;47.766;8.846;2023-12-14T02:06:48;1.80;;;0.90;;
15952;SDS011;8075;47.766;8.846;2023-12-14T02:09:14;1.45;;;0.80;;
15952;SDS011;8075;47.766;8.846;2023-12-14T02:11:40;1.00;;;0.90;;
15952;SDS011;8075;47.766;8.846;2023-12-14T02:14:08;1.45;;;0.80;;
15952;SDS011;8075;47.766;8.846;2023-12-14T02:16:34;0.70;;;0.70;;
15952;SDS011;8075;47.766;8.846;2023-12-14T02:19:03;1.00;;;0.80;;
15952;SDS011;8075;47.766;8.846;2023-12-14T02:21:29;1.10;;;0.75;;
15952;SDS011;8075;47.766;8.846;2023-12-14T02:23:55;0.82;;;0.80;;
15952;SDS011;8075;47.766;8.846;2023-12-14T02:26:21;0.90;;;0.80;;
15952;SDS011;8075;47.766;8.846;2023-12-14T02:28:47;2.20;;;1.10;;
15952;SDS011;8075;47.766;8.846;2023-12-14T02:31:13;1.50;;;1.40;;
15952;SDS011;8075;47.766;8.846;2023-12-14T02:33:39;1.98;;;1.63;;
15952;SDS011;8075;47.766;8.846;2023-12-14T02:36:05;1.65;;;1.55;;
15952;SDS011;8075;47.766;8.846;2023-12-14T02:38:31;2.28;;;2.08;;
15952;SDS011;8075;47.766;8.846;2023-12-14T02:40:58;2.53;;;2.00;;
15952;SDS011;8075;47.766;8.846;2023-12-14T02:43:24;2.47;;;2.10;;
15952;SDS011;8075;47.766;8.846;2023-12-14T02:45:50;2.35;;;2.15;;
15952;SDS011;8075;47.766;8.846;2023-12-14T02:48:16;2.45;;;2.20;;
15952;SDS011;8075;47.766;8.846;2023-12-14T02:50:42;2.20;;;2.00;;
15952;SDS011;8075;47.766;8.846;2023-12-14T02:53:08;2.35;;;2.15;;
15952;SDS011;8075;47.766;8.846;2023-12-14T02:55:34;2.22;;;2.00;;
15952;SDS011;8075;47.766;8.846;2023-12-14T02:58:00;2.28;;;2.08;;
15952;SDS011;8075;47.766;8.846;2023-12-14T03:00:26;1.90;;;1.80;;
15952;SDS011;8075;47.766;8.846;2023-12-14T03:02:52;2.15;;;1.95;;
15952;SDS011;8075;47.766;8.846;2023-12-14T03:05:18;1.55;;;1.45;;
15952;SDS011;8075;47.766;8.846;2023-12-14T03:07:44;1.67;;;1.55;;
15952;SDS011;8075;47.766;8.846;2023-12-14T03:10:10;1.33;;;1.23;;
15952;SDS011;8075;47.766;8.846;2023-12-14T03:12:36;1.30;;;1.20;;
15952;SDS011;8075;47.766;8.846;2023-12-14T03:15:02;1.42;;;1.33;;
15952;SDS011;8075;47.766;8.846;2023-12-14T03:17:28;1.60;;;1.10;;
15952;SDS011;8075;47.766;8.846;2023-12-14T03:19:54;2.30;;;1.40;;
15952;SDS011;8075;47.766;8.846;2023-12-14T03:22:20;2.57;;;2.13;;
15952;SDS011;8075;47.766;8.846;2023-12-14T03:24:46;3.15;;;2.05;;
15952;SDS011;8075;47.766;8.846;2023-12-14T03:27:12;2.22;;;1.60;;
15952;SDS011;8075;47.766;8.846;2023-12-14T03:29:38;1.47;;;1.37;;
15952;SDS011;8075;47.766;8.846;2023-12-14T03:32:04;1.38;;;1.23;;
15952;SDS011;8075;47.766;8.846;2023-12-14T03:34:30;1.33;;;1.00;;
15952;SDS011;8075;47.766;8.846;2023-12-14T03:36:56;1.45;;;1.33;;
15952;SDS011;8075;47.766;8.846;2023-12-14T03:39:22;1.50;;;1.17;;
15952;SDS011;8075;47.766;8.846;2023-12-14T03:41:48;1.80;;;1.60;;
15952;SDS011;8075;47.766;8.846;2023-12-14T03:44:14;1.35;;;1.20;;
15952;SDS011;8075;47.766;8.846;2023-12-14T03:46:40;1.13;;;1.00;;
15952;SDS011;8075;47.766;8.846;2023-12-14T03:49:06;1.55;;;1.35;;
15952;SDS011;8075;47.766;8.846;2023-12-14T03:51:32;1.58;;;1.48;;
15952;SDS011;8075;47.766;8.846;2023-12-14T03:53:58;1.65;;;1.48;;
15952;SDS011;8075;47.766;8.846;2023-12-14T03:56:24;2.07;;;1.50;;
15952;SDS011;8075;47.766;8.846;2023-12-14T03:58:50;1.40;;;1.30;;
15952;SDS011;8075;47.766;8.846;2023-12-14T04:01:19;2.40;;;1.20;;
15952;SDS011;8075;47.766;8.846;2023-12-14T04:03:46;2.00;;;1.30;;
15952;SDS011;8075;47.766;8.846;2023-12-14T04:06:12;2.15;;;1.55;;
15952;SDS011;8075;47.766;8.846;2023-12-14T04:08:38;1.63;;;1.40;;
15952;SDS011;8075;47.766;8.846;2023-12-14T04:11:05;2.38;;;1.40;;
15952;SDS011;8075;47.766;8.846;2023-12-14T04:13:31;2.20;;;1.60;;
15952;SDS011;8075;47.766;8.846;2023-12-14T04:15:57;1.80;;;1.65;;
15952;SDS011;8075;47.766;8.846;2023-12-14T04:18:23;1.65;;;1.48;;
15952;SDS011;8075;47.766;8.846;2023-12-14T04:20:49;1.95;;;1.75;;
15952;SDS011;8075;47.766;8.846;2023-12-14T04:23:15;3.05;;;2.17;;
15952;SDS011;8075;47.766;8.846;2023-12-14T04:25:41;2.25;;;1.55;;
15952;SDS011;8075;47.766;8.846;2023-12-14T04:28:07;2.10;;;1.90;;
15952;SDS011;8075;47.766;8.846;2023-12-14T04:30:33;1.52;;;1.42;;
15952;SDS011;8075;47.766;8.846;2023-12-14T04:32:59;1.75;;;1.65;;
15952;SDS011;8075;47.766;8.846;2023-12-14T04:35:25;2.40;;;1.98;;
15952;SDS011;8075;47.766;8.846;2023-12-14T04:37:51;2.33;;;1.75;;
15952;SDS011;8075;47.766;8.846;2023-12-14T04:40:17;2.10;;;1.85;;
15952;SDS011;8075;47.766;8.846;2023-12-14T04:42:43;2.40;;;2.10;;
15952;SDS011;8075;47.766;8.846;2023-12-14T04:45:10;2.45;;;1.88;;
15952;SDS011;8075;47.766;8.846;2023-12-14T04:47:36;2.90;;;2.50;;
15952;SDS011;8075;47.766;8.846;2023-12-14T04:50:02;11.43;;;8.65;;
15952;SDS011;8075;47.766;8.846;2023-12-14T04:52:28;3.22;;;2.92;;
15952;SDS011;8075;47.766;8.846;2023-12-14T04:54:54;2.42;;;2.00;;
15952;SDS011;8075;47.766;8.846;2023-12-14T04:57:22;2.00;;;1.90;;
15952;SDS011;8075;47.766;8.846;2023-12-14T04:59:48;2.93;;;2.50;;
15952;SDS011;8075;47.766;8.846;2023-12-14T05:02:14;3.10;;;2.80;;
15952;SDS011;8075;47.766;8.846;2023-12-14T05:04:40;2.40;;;2.13;;
15952;SDS011;8075;47.766;8.846;2023-12-14T05:07:06;2.33;;;2.10;;
15952;SDS011;8075;47.766;8.846;2023-12-14T05:09:32;13.43;;;9.00;;
15952;SDS011;8075;47.766;8.846;2023-12-14T05:11:58;8.30;;;6.05;;
15952;SDS011;8075;47.766;8.846;2023-12-14T05:14:24;2.10;;;1.83;;
15952;SDS011;8075;47.766;8.846;2023-12-14T05:16:52;2.67;;;2.47;;
15952;SDS011;8075;47.766;8.846;2023-12-14T05:19:18;2.42;;;1.88;;
15952;SDS011;8075;47.766;8.846;2023-12-14T05:21:44;1.77;;;1.67;;
15952;SDS011;8075;47.766;8.846;2023-12-14T05:24:10;2.17;;;1.98;;
15952;SDS011;8075;47.766;8.846;2023-12-14T05:26:36;1.80;;;1.70;;
15952;SDS011;8075;47.766;8.846;2023-12-14T05:29:02;2.10;;;1.90;;
15952;SDS011;8075;47.766;8.846;2023-12-14T05:31:28;2.25;;;2.05;;
15952;SDS011;8075;47.766;8.846;2023-12-14T05:33:54;1.85;;;1.48;;
15952;SDS011;8075;47.766;8.846;2023-12-14T05:36:20;1.70;;;1.60;;
15952;SDS011;8075;47.766;8.846;2023-12-14T05:38:46;1.50;;;1.40;;
15952;SDS011;8075;47.766;8.846;2023-12-14T05:41:12;1.63;;;1.52;;
15952;SDS011;8075;47.766;8.846;2023-12-14T05:43:38;1.30;;;1.20;;
15952;SDS011;8075;47.766;8.846;2023-12-14T05:46:04;1.40;;;1.30;;
15952;SDS011;8075;47.766;8.846;2023-12-14T05:48:30;1.40;;;1.30;;
15952;SDS011;8075;47.766;8.846;2023-12-14T05:50:56;1.20;;;1.10;;
15952;SDS011;8075;47.766;8.846;2023-12-14T05:53:22;1.35;;;1.25;;
15952;SDS011;8075;47.766;8.846;2023-12-14T05:55:48;1.90;;;1.75;;
15952;SDS011;8075;47.766;8.846;2023-12-14T05:58:14;1.90;;;1.80;;
15952;SDS011;8075;47.766;8.846;2023-12-14T06:00:40;1.90;;;1.80;;
15952;SDS011;8075;47.766;8.846;2023-12-14T06:03:06;1.85;;;1.75;;
15952;SDS011;8075;47.766;8.846;2023-12-14T06:05:32;2.00;;;1.90;;
15952;SDS011;8075;47.766;8.846;2023-12-14T06:07:58;2.25;;;2.10;;
15952;SDS011;8075;47.766;8.846;2023-12-14T06:10:24;2.70;;;2.50;;
15952;SDS011;8075;47.766;8.846;2023-12-14T06:12:50;2.50;;;2.30;;
15952;SDS011;8075;47.766;8.846;2023-12-14T06:15:16;2.30;;;2.20;;
15952;SDS011;8075;47.766;8.846;2023-12-14T06:17:42;2.72;;;2.53;;
15952;SDS011;8075;47.766;8.846;2023-12-14T06:20:08;2.70;;;2.50;;
15952;SDS011;8075;47.766;8.846;2023-12-14T06:22:37;3.00;;;2.80;;
15952;SDS011;8075;47.766;8.846;2023-12-14T06:25:03;2.80;;;2.60;;
15952;SDS011;8075;47.766;8.846;2023-12-14T06:27:29;2.60;;;2.40;;
15952;SDS011;8075;47.766;8.846;2023-12-14T06:29:55;2.67;;;2.47;;
15952;SDS011;8075;47.766;8.846;2023-12-14T06:32:21;2.63;;;2.42;;
15952;SDS011;8075;47.766;8.846;2023-12-14T06:34:47;2.50;;;2.30;;
15952;SDS011;8075;47.766;8.846;2023-12-14T06:37:13;2.67;;;2.47;;
15952;SDS011;8075;47.766;8.846;2023-12-14T06:39:43;3.22;;;2.60;;
15952;SDS011;8075;47.766;8.846;2023-12-14T06:42:09;2.50;;;2.30;;
15952;SDS011;8075;47.766;8.846;2023-12-14T06:44:36;2.60;;;2.40;;
15952;SDS011;8075;47.766;8.846;2023-12-14T06:47:03;2.50;;;2.30;;
15952;SDS011;8075;47.766;8.846;2023-12-14T06:49:29;2.20;;;2.10;;
15952;SDS011;8075;47.766;8.846;2023-12-14T06:51:55;2.70;;;2.50;;
15952;SDS011;8075;47.766;8.846;2023-12-14T06:54:21;2.50;;;2.30;;
15952;SDS011;8075;47.766;8.846;2023-12-14T06:56:47;2.97;;;2.67;;
15952;SDS011;8075;47.766;8.846;2023-12-14T06:59:13;2.85;;;2.65;;
15952;SDS011;8075;47.766;8.846;2023-12-14T07:01:39;2.17;;;1.90;;
15952;SDS011;8075;47.766;8.846;2023-12-14T07:04:05;2.40;;;2.20;;
15952;SDS011;8075;47.766;8.846;2023-12-14T07:06:32;2.78;;;2.58;;
15952;SDS011;8075;47.766;8.846;2023-12-14T07:09:00;2.50;;;2.30;;
15952;SDS011;8075;47.766;8.846;2023-12-14T07:11:26;5.30;;;4.80;;
15952;SDS011;8075;47.766;8.846;2023-12-14T07:13:52;3.60;;;3.30;;
15952;SDS011;8075;47.766;8.846;2023-12-14T07:16:18;2.47;;;2.27;;
15952;SDS011;8075;47.766;8.846;2023-12-14T07:18:44;2.63;;;2.42;;
15952;SDS011;8075;47.766;8.846;2023-12-14T07:21:10;3.50;;;3.20;;
15952;SDS011;8075;47.766;8.846;2023-12-14T07:23:36;2.57;;;2.37;;
15952;SDS011;8075;47.766;8.846;2023-12-14T07:26:02;5.40;;;3.05;;
15952;SDS011;8075;47.766;8.846;2023-12-14T07:28:28;2.72;;;2.53;;
15952;SDS011;8075;47.766;8.846;2023-12-14T07:30:54;3.30;;;2.97;;
15952;SDS011;8075;47.766;8.846;2023-12-14T07:33:20;3.30;;;3.10;;
15952;SDS011;8075;47.766;8.846;2023-12-14T07:35:46;4.07;;;3.67;;
15952;SDS011;8075;47.766;8.846;2023-12-14T07:38:12;4.50;;;4.10;;
15952;SDS011;8075;47.766;8.846;2023-12-14T07:40:38;4.97;;;4.57;;
15952;SDS011;8075;47.766;8.846;2023-12-14T07:43:05;5.40;;;5.00;;
15952;SDS011;8075;47.766;8.846;2023-12-14T07:45:31;5.32;;;4.93;;
15952;SDS011;8075;47.766;8.846;2023-12-14T07:47:57;5.83;;;5.33;;
15952;SDS011;8075;47.766;8.846;2023-12-14T07:50:23;6.32;;;5.82;;
15952;SDS011;8075;47.766;8.846;2023-12-14T07:52:49;6.70;;;6.10;;
15952;SDS011;8075;47.766;8.846;2023-12-14T07:55:15;7.10;;;6.50;;
15952;SDS011;8075;47.766;8.846;2023-12-14T07:57:42;6.57;;;6.07;;
15952;SDS011;8075;47.766;8.846;2023-12-14T08:00:08;6.87;;;6.37;;
15952;SDS011;8075;47.766;8.846;2023-12-14T08:02:35;7.10;;;6.50;;
15952;SDS011;8075;47.766;8.846;2023-12-14T08:05:01;7.57;;;6.97;;
15952;SDS011;8075;47.766;8.846;2023-12-14T08:07:27;7.93;;;7.23;;
15952;SDS011;8075;47.766;8.846;2023-12-14T08:09:56;7.50;;;6.90;;
15952;SDS011;8075;47.766;8.846;2023-12-14T08:12:23;7.20;;;6.60;;
15952;SDS011;8075;47.766;8.846;2023-12-14T08:14:49;6.82;;;6.25;;
15952;SDS011;8075;47.766;8.846;2023-12-14T08:17:15;7.25;;;6.60;;
15952;SDS011;8075;47.766;8.846;2023-12-14T08:19:41;7.80;;;7.05;;
15952;SDS011;8075;47.766;8.846;2023-12-14T08:22:08;7.60;;;6.97;;
15952;SDS011;8075;47.766;8.846;2023-12-14T08:24:36;8.20;;;7.43;;
15952;SDS011;8075;47.766;8.846;2023-12-14T08:27:02;7.70;;;6.97;;
15952;SDS011;8075;47.766;8.846;2023-12-14T08:29:28;8.00;;;7.30;;
15952;SDS011;8075;47.766;8.846;2023-12-14T08:31:54;7.13;;;6.53;;
15952;SDS011;8075;47.766;8.846;2023-12-14T08:34:22;6.30;;;5.80;;
15952;SDS011;8075;47.766;8.846;2023-12-14T08:36:48;5.50;;;5.00;;
15952;SDS011;8075;47.766;8.846;2023-12-14T08:39:14;5.40;;;4.90;;
15952;SDS011;8075;47.766;8.846;2023-12-14T08:41:40;6.17;;;5.67;;
15952;SDS011;8075;47.766;8.846;2023-12-14T08:44:07;6.43;;;5.90;;
15952;SDS011;8075;47.766;8.846;2023-12-14T08:46:43;6.32;;;5.82;;
15952;SDS011;8075;47.766;8.846;2023-12-14T08:49:09;6.10;;;5.70;;
15952;SDS011;8075;47.766;8.846;2023-12-14T08:51:36;5.80;;;5.40;;
15952;SDS011;8075;47.766;8.846;2023-12-14T08:54:02;6.07;;;5.60;;
15952;SDS011;8075;47.766;8.846;2023-12-14T08:56:28;6.25;;;5.65;;
15952;SDS011;8075;47.766;8.846;2023-12-14T08:58:54;6.70;;;6.13;;
15952;SDS011;8075;47.766;8.846;2023-12-14T09:01:20;7.13;;;6.53;;
15952;SDS011;8075;47.766;8.846;2023-12-14T09:03:46;6.82;;;6.13;;
15952;SDS011;8075;47.766;8.846;2023-12-14T09:06:12;6.80;;;6.20;;
15952;SDS011;8075;47.766;8.846;2023-12-14T09:08:39;6.90;;;6.30;;
15952;SDS011;8075;47.766;8.846;2023-12-14T09:11:06;7.00;;;6.50;;
15952;SDS011;8075;47.766;8.846;2023-12-14T09:13:32;6.85;;;6.25;;
15952;SDS011;8075;47.766;8.846;2023-12-14T09:15:58;6.00;;;5.40;;
15952;SDS011;8075;47.766;8.846;2023-12-14T09:18:24;6.20;;;5.70;;
15952;SDS011;8075;47.766;8.846;2023-12-14T09:20:50;6.05;;;5.55;;
15952;SDS011;8075;47.766;8.846;2023-12-14T09:23:16;5.63;;;5.13;;
15952;SDS011;8075;47.766;8.846;2023-12-14T09:25:43;6.40;;;5.90;;
15952;SDS011;8075;47.766;8.846;2023-12-14T09:28:09;5.72;;;5.20;;
15952;SDS011;8075;47.766;8.846;2023-12-14T09:30:35;5.30;;;4.80;;
15952;SDS011;8075;47.766;8.846;2023-12-14T09:33:01;4.90;;;4.50;;
15952;SDS011;8075;47.766;8.846;2023-12-14T09:35:27;4.38;;;4.07;;
15952;SDS011;8075;47.766;8.846;2023-12-14T09:37:53;4.03;;;3.72;;
15952;SDS011;8075;47.766;8.846;2023-12-14T09:40:21;4.30;;;3.90;;
15952;SDS011;8075;47.766;8.846;2023-12-14T09:42:47;4.10;;;3.80;;
15952;SDS011;8075;47.766;8.846;2023-12-14T09:45:13;4.23;;;3.83;;
15952;SDS011;8075;47.766;8.846;2023-12-14T09:47:42;4.60;;;3.75;;
15952;SDS011;8075;47.766;8.846;2023-12-14T09:50:08;4.22;;;3.83;;
15952;SDS011;8075;47.766;8.846;2023-12-14T09:52:34;3.60;;;3.30;;
15952;SDS011;8075;47.766;8.846;2023-12-14T09:55:01;3.28;;;3.08;;
15952;SDS011;8075;47.766;8.846;2023-12-14T09:57:29;3.13;;;2.92;;
15952;SDS011;8075;47.766;8.846;2023-12-14T09:59:55;3.40;;;3.10;;
15952;SDS011;8075;47.766;8.846;2023-12-14T10:02:24;4.10;;;3.70;;
15952;SDS011;8075;47.766;8.846;2023-12-14T10:04:51;3.67;;;3.38;;
15952;SDS011;8075;47.766;8.846;2023-12-14T10:07:18;4.00;;;3.60;;
15952;SDS011;8075;47.766;8.846;2023-12-14T10:09:44;3.90;;;3.60;;
15952;SDS011;8075;47.766;8.846;2023-12-14T10:12:10;4.75;;;3.63;;
15952;SDS011;8075;47.766;8.846;2023-12-14T10:14:36;3.80;;;3.50;;
15952;SDS011;8075;47.766;8.846;2023-12-14T10:19:59;3.20;;;2.95;;
15952;SDS011;8075;47.766;8.846;2023-12-14T10:22:28;3.03;;;2.83;;
15952;SDS011;8075;47.766;8.846;2023-12-14T10:24:57;2.97;;;2.77;;
15952;SDS011;8075;47.766;8.846;2023-12-14T10:27:24;3.10;;;2.80;;
15952;SDS011;8075;47.766;8.846;2023-12-14T10:29:51;3.03;;;2.83;;
15952;SDS011;8075;47.766;8.846;2023-12-14T10:32:17;2.47;;;2.28;;
15952;SDS011;8075;47.766;8.846;2023-12-14T10:34:43;3.30;;;3.00;;
15952;SDS011;8075;47.766;8.846;2023-12-14T10:37:09;3.30;;;3.10;;
15952;SDS011;8075;47.766;8.846;2023-12-14T10:39:35;3.42;;;2.80;;
15952;SDS011;8075;47.766;8.846;2023-12-14T10:42:03;3.10;;;2.90;;
15952;SDS011;8075;47.766;8.846;2023-12-14T10:44:29;3.40;;;3.10;;
15952;SDS011;8075;47.766;8.846;2023-12-14T10:46:56;3.10;;;2.90;;
15952;SDS011;8075;47.766;8.846;2023-12-14T10:49:26;3.60;;;3.00;;
15952;SDS011;8075;47.766;8.846;2023-12-14T10:51:52;2.97;;;2.78;;
15952;SDS011;8075;47.766;8.846;2023-12-14T10:54:19;3.33;;;3.03;;
15952;SDS011;8075;47.766;8.846;2023-12-14T10:56:45;3.22;;;3.00;;
15952;SDS011;8075;47.766;8.846;2023-12-14T10:59:12;4.18;;;3.05;;
15952;SDS011;8075;47.766;8.846;2023-12-14T11:01:41;2.90;;;2.70;;
15952;SDS011;8075;47.766;8.846;2023-12-14T11:04:07;3.50;;;3.20;;
15952;SDS011;8075;47.766;8.846;2023-12-14T11:06:38;2.80;;;2.60;;
15952;SDS011;8075;47.766;8.846;2023-12-14T11:09:08;3.10;;;2.90;;
15952;SDS011;8075;47.766;8.846;2023-12-14T11:11:42;2.77;;;2.50;;
15952;SDS011;8075;47.766;8.846;2023-12-14T11:14:11;2.63;;;2.40;;
15952;SDS011;8075;47.766;8.846;2023-12-14T11:16:38;2.97;;;2.28;;
15952;SDS011;8075;47.766;8.846;2023-12-14T11:24:36;2.50;;;2.30;;
15952;SDS011;8075;47.766;8.846;2023-12-14T11:27:06;2.20;;;2.10;;
15952;SDS011;8075;47.766;8.846;2023-12-14T11:29:32;2.60;;;2.40;;
15952;SDS011;8075;47.766;8.846;2023-12-14T11:31:58;2.50;;;2.30;;
15952;SDS011;8075;47.766;8.846;2023-12-14T11:34:24;2.60;;;2.40;;
15952;SDS011;8075;47.766;8.846;2023-12-14T11:36:50;2.30;;;2.10;;
15952;SDS011;8075;47.766;8.846;2023-12-14T11:39:16;3.17;;;2.67;;
15952;SDS011;8075;47.766;8.846;2023-12-14T11:41:55;2.43;;;2.23;;
15952;SDS011;8075;47.766;8.846;2023-12-14T11:44:24;2.40;;;2.20;;
15952;SDS011;8075;47.766;8.846;2023-12-14T11:46:50;2.72;;;2.53;;
15952;SDS011;8075;47.766;8.846;2023-12-14T11:49:16;2.80;;;2.60;;
15952;SDS011;8075;47.766;8.846;2023-12-14T11:51:45;2.80;;;2.58;;
15952;SDS011;8075;47.766;8.846;2023-12-14T11:54:11;2.95;;;2.75;;
15952;SDS011;8075;47.766;8.846;2023-12-14T11:56:37;3.17;;;2.88;;
15952;SDS011;8075;47.766;8.846;2023-12-14T11:59:03;2.90;;;2.60;;
15952;SDS011;8075;47.766;8.846;2023-12-14T12:01:29;2.40;;;2.20;;
15952;SDS011;8075;47.766;8.846;2023-12-14T12:03:56;2.90;;;2.60;;
15952;SDS011;8075;47.766;8.846;2023-12-14T12:06:23;3.15;;;2.50;;
15952;SDS011;8075;47.766;8.846;2023-12-14T12:08:49;2.70;;;2.50;;
15952;SDS011;8075;47.766;8.846;2023-12-14T12:11:16;2.92;;;2.70;;
15952;SDS011;8075;47.766;8.846;2023-12-14T12:13:42;2.60;;;2.40;;
15952;SDS011;8075;47.766;8.846;2023-12-14T12:16:08;2.77;;;2.57;;
15952;SDS011;8075;47.766;8.846;2023-12-14T12:18:34;2.55;;;2.35;;
15952;SDS011;8075;47.766;8.846;2023-12-14T12:21:00;2.67;;;2.45;;
15952;SDS011;8075;47.766;8.846;2023-12-14T12:23:30;2.28;;;2.08;;
15952;SDS011;8075;47.766;8.846;2023-12-14T12:25:56;2.85;;;2.55;;
15952;SDS011;8075;47.766;8.846;2023-12-14T12:28:22;3.63;;;2.63;;
15952;SDS011;8075;47.766;8.846;2023-12-14T12:30:48;2.93;;;2.30;;
15952;SDS011;8075;47.766;8.846;2023-12-14T12:33:14;2.40;;;2.20;;
15952;SDS011;8075;47.766;8.846;2023-12-14T12:35:40;2.80;;;2.20;;
15952;SDS011;8075;47.766;8.846;2023-12-14T12:38:06;3.70;;;1.98;;
15952;SDS011;8075;47.766;8.846;2023-12-14T12:40:32;3.08;;;2.10;;
15952;SDS011;8075;47.766;8.846;2023-12-14T12:42:58;2.20;;;1.92;;
15952;SDS011;8075;47.766;8.846;2023-12-14T12:45:24;2.08;;;1.83;;
15952;SDS011;8075;47.766;8.846;2023-12-14T12:47:54;2.50;;;1.70;;
15952;SDS011;8075;47.766;8.846;2023-12-14T12:50:20;1.80;;;1.60;;
15952;SDS011;8075;47.766;8.846;2023-12-14T12:52:46;2.50;;;1.80;;
15952;SDS011;8075;47.766;8.846;2023-12-14T12:55:14;1.83;;;1.70;;
15952;SDS011;8075;47.766;8.846;2023-12-14T12:57:40;2.03;;;1.85;;
15952;SDS011;8075;47.766;8.846;2023-12-14T13:00:07;1.80;;;1.70;;
15952;SDS011;8075;47.766;8.846;2023-12-14T13:02:36;1.60;;;1.50;;
15952;SDS011;8075;47.766;8.846;2023-12-14T13:05:03;1.60;;;1.50;;
15952;SDS011;8075;47.766;8.846;2023-12-14T13:07:30;1.90;;;1.70;;
15952;SDS011;8075;47.766;8.846;2023-12-14T13:09:57;1.80;;;1.70;;
15952;SDS011;8075;47.766;8.846;2023-12-14T13:12:23;2.35;;;1.80;;
15952;SDS011;8075;47.766;8.846;2023-12-14T13:14:49;1.92;;;1.80;;
15952;SDS011;8075;47.766;8.846;2023-12-14T13:17:15;2.00;;;1.55;;
15952;SDS011;8075;47.766;8.846;2023-12-14T13:19:44;1.38;;;1.27;;
15952;SDS011;8075;47.766;8.846;2023-12-14T13:22:10;1.60;;;1.42;;
15952;SDS011;8075;47.766;8.846;2023-12-14T13:24:36;2.70;;;1.50;;
15952;SDS011;8075;47.766;8.846;2023-12-14T13:27:03;1.75;;;1.50;;
15952;SDS011;8075;47.766;8.846;2023-12-14T13:29:29;1.85;;;1.48;;
15952;SDS011;8075;47.766;8.846;2023-12-14T13:32:00;1.40;;;1.30;;
15952;SDS011;8075;47.766;8.846;2023-12-14T13:34:26;1.55;;;1.45;;
15952;SDS011;8075;47.766;8.846;2023-12-14T13:36:57;1.42;;;1.33;;
15952;SDS011;8075;47.766;8.846;2023-12-14T13:39:25;1.90;;;1.20;;
15952;SDS011;8075;47.766;8.846;2023-12-14T13:41:52;1.63;;;1.45;;
15952;SDS011;8075;47.766;8.846;2023-12-14T13:44:17;1.90;;;1.48;;
15952;SDS011;8075;47.766;8.846;2023-12-14T13:46:43;2.13;;;1.50;;
15952;SDS011;8075;47.766;8.846;2023-12-14T13:49:09;2.40;;;1.58;;
15952;SDS011;8075;47.766;8.846;2023-12-14T13:51:35;1.98;;;1.27;;
15952;SDS011;8075;47.766;8.846;2023-12-14T13:54:01;1.52;;;1.42;;
15952;SDS011;8075;47.766;8.846;2023-12-14T13:56:27;2.30;;;1.90;;
15952;SDS011;8075;47.766;8.846;2023-12-14T13:58:53;1.50;;;1.23;;
15952;SDS011;8075;47.766;8.846;2023-12-14T14:01:20;1.20;;;1.10;;
15952;SDS011;8075;47.766;8.846;2023-12-14T14:03:46;1.33;;;1.10;;
15952;SDS011;8075;47.766;8.846;2023-12-14T14:06:12;1.05;;;0.60;;
15952;SDS011;8075;47.766;8.846;2023-12-14T14:08:39;2.20;;;1.40;;
15952;SDS011;8075;47.766;8.846;2023-12-14T14:11:05;1.00;;;0.90;;
15952;SDS011;8075;47.766;8.846;2023-12-14T14:13:31;0.63;;;0.60;;
15952;SDS011;8075;47.766;8.846;2023-12-14T14:15:58;0.90;;;0.80;;
15952;SDS011;8075;47.766;8.846;2023-12-14T14:18:24;0.70;;;0.70;;
15952;SDS011;8075;47.766;8.846;2023-12-14T14:20:50;1.20;;;1.00;;
15952;SDS011;8075;47.766;8.846;2023-12-14T14:23:16;1.23;;;0.93;;
15952;SDS011;8075;47.766;8.846;2023-12-14T14:25:42;1.15;;;0.93;;
15952;SDS011;8075;47.766;8.846;2023-12-14T14:28:09;1.00;;;0.90;;
15952;SDS011;8075;47.766;8.846;2023-12-14T14:30:35;1.40;;;1.02;;
15952;SDS011;8075;47.766;8.846;2023-12-14T14:33:01;0.60;;;0.60;;
15952;SDS011;8075;47.766;8.846;2023-12-14T14:35:27;0.75;;;0.70;;
15952;SDS011;8075;47.766;8.846;2023-12-14T14:37:54;0.57;;;0.52;;
15952;SDS011;8075;47.766;8.846;2023-12-14T14:40:20;0.47;;;0.47;;
15952;SDS011;8075;47.766;8.846;2023-12-14T14:42:47;0.80;;;0.60;;
15952;SDS011;8075;47.766;8.846;2023-12-14T14:45:14;1.60;;;0.60;;
15952;SDS011;8075;47.766;8.846;2023-12-14T14:47:40;0.80;;;0.60;;
15952;SDS011;8075;47.766;8.846;2023-12-14T14:50:07;0.73;;;0.63;;
15952;SDS011;8075;47.766;8.846;2023-12-14T14:52:33;0.50;;;0.50;;
15952;SDS011;8075;47.766;8.846;2023-12-14T14:55:02;0.80;;;0.70;;
15952;SDS011;8075;47.766;8.846;2023-12-14T14:57:29;1.00;;;0.90;;
15952;SDS011;8075;47.766;8.846;2023-12-14T14:59:56;1.13;;;0.73;;
15952;SDS011;8075;47.766;8.846;2023-12-14T15:02:22;0.85;;;0.80;;